createdAt,value
2023-09-23T00:01:07.069Z,95206.77
2023-09-23T00:02:19.597Z,95208.97
2023-09-23T00:03:28.674Z,95208.29
2023-09-23T00:04:36.210Z,95208.23
2023-09-23T00:05:42.751Z,95208.01
2023-09-23T00:06:52.053Z,95205.66
2023-09-23T00:08:00.574Z,95207.30
2023-09-23T00:09:09.328Z,95216.34
2023-09-23T00:10:15.709Z,95219.95
2023-09-23T00:11:23.388Z,95222.06
2023-09-23T00:12:32.326Z,95222.30
2023-09-23T00:13:38.487Z,95220.17
2023-09-23T00:14:46.354Z,95217.39
2023-09-23T00:15:53.845Z,95216.73
2023-09-23T00:17:01.104Z,95221.55
2023-09-23T00:18:08.132Z,95219.10
2023-09-23T00:19:14.750Z,95221.20
2023-09-23T00:20:23.221Z,95222.60
2023-09-23T00:21:30.064Z,95219.45
2023-09-23T00:22:39.489Z,95214.57
2023-09-23T00:23:48.120Z,95214.08
2023-09-23T00:24:55.962Z,95215.40
2023-09-23T00:26:03.739Z,95214.92
2023-09-23T00:27:11.621Z,95213.15
2023-09-23T00:28:18.905Z,95214.78
2023-09-23T00:29:29.354Z,95217.39
2023-09-23T00:30:35.957Z,95222.35
2023-09-23T00:31:45.181Z,95224.59
2023-09-23T00:32:52.427Z,95226.48
2023-09-23T00:33:58.943Z,95228.17
2023-09-23T00:35:08.266Z,95225.61
2023-09-23T00:36:12.708Z,95229.17
2023-09-23T00:37:19.482Z,95228.96
2023-09-23T00:38:28.722Z,95229.70
2023-09-23T00:39:43.570Z,95231.94
2023-09-23T00:40:48.610Z,95233.80
2023-09-23T00:41:55.508Z,95233.16
2023-09-23T00:43:14.046Z,95234.20
2023-09-23T00:44:21.019Z,95236.57
2023-09-23T00:45:30.798Z,95238.91
2023-09-23T00:46:38.538Z,95243.86
2023-09-23T00:47:47.325Z,95238.55
2023-09-23T00:48:54.893Z,95238.73
2023-09-23T00:50:05.427Z,95238.23
2023-09-23T00:51:13.223Z,95236.80
2023-09-23T00:52:19.450Z,95240.24
2023-09-23T00:53:27.512Z,95231.84
2023-09-23T00:54:36.907Z,95230.48
2023-09-23T00:55:53.429Z,95231.34
2023-09-23T00:57:02.309Z,95229.70
2023-09-23T00:58:09.025Z,95231.29
2023-09-23T00:59:19.124Z,95228.87
2023-09-23T01:00:32.261Z,95229.34
2023-09-23T01:01:42.172Z,95229.84
2023-09-23T01:02:50.235Z,95227.67
2023-09-23T01:03:56.667Z,95226.59
2023-09-23T01:05:03.023Z,95222.81
2023-09-23T01:06:29.861Z,95222.35
2023-09-23T01:07:37.278Z,95220.45
2023-09-23T01:08:47.218Z,95221.20
2023-09-23T01:09:54.105Z,95225.23
2023-09-23T01:11:01.540Z,95223.17
2023-09-23T01:12:10.647Z,95218.59
2023-09-23T01:13:23.147Z,95221.71
2023-09-23T01:14:30.890Z,95225.26
2023-09-23T01:15:44.401Z,95225.13
2023-09-23T01:16:55.474Z,95222.23
2023-09-23T01:18:02.962Z,95222.75
2023-09-23T01:19:10.995Z,95224.09
2023-09-23T01:20:17.747Z,95220.83
2023-09-23T01:21:24.997Z,95221.55
2023-09-23T01:22:31.933Z,95224.81
2023-09-23T01:23:39.564Z,95223.56
2023-09-23T01:24:47.492Z,95223.36
2023-09-23T01:25:53.889Z,95223.41
2023-09-23T01:27:01.786Z,95225.70
2023-09-23T01:28:14.867Z,95225.21
2023-09-23T01:29:23.873Z,95225.17
2023-09-23T01:30:30.435Z,95224.68
2023-09-23T01:31:37.193Z,95224.05
2023-09-23T01:32:51.718Z,95225.12
2023-09-23T01:33:59.642Z,95221.80
2023-09-23T01:35:07.876Z,95219.96
2023-09-23T01:36:15.281Z,95218.79
2023-09-23T01:37:22.687Z,95219.49
2023-09-23T01:38:29.324Z,95219.30
2023-09-23T01:39:35.614Z,95218.91
2023-09-23T01:40:42.563Z,95215.98
2023-09-23T01:41:49.912Z,95215.64
2023-09-23T01:42:59.154Z,95217.70
2023-09-23T01:44:06.171Z,95214.45
2023-09-23T01:45:14.504Z,95212.92
2023-09-23T01:46:21.489Z,95218.20
2023-09-23T01:47:28.079Z,95215.02
2023-09-23T01:48:34.777Z,95216.33
2023-09-23T01:49:41.409Z,95214.72
2023-09-23T01:50:50.703Z,95213.74
2023-09-23T01:51:57.309Z,95213.25
2023-09-23T01:53:05.861Z,95217.59
2023-09-23T01:54:17.468Z,95215.08
2023-09-23T01:55:24.097Z,95216.80
2023-09-23T01:56:33.354Z,95215.23
2023-09-23T01:57:40.869Z,95211.75
2023-09-23T01:58:50.799Z,95214.18
2023-09-23T01:59:58.089Z,95220.38
2023-09-23T02:01:06.091Z,95214.83
2023-09-23T02:02:13.801Z,95212.72
2023-09-23T02:03:21.749Z,95212.42
2023-09-23T02:04:28.613Z,95213.27
2023-09-23T02:05:34.939Z,95215.02
2023-09-23T02:06:44.391Z,95221.36
2023-09-23T02:07:52.238Z,95222.67
2023-09-23T02:08:59.236Z,95225.30
2023-09-23T02:10:07.021Z,95226.35
2023-09-23T02:11:13.127Z,95226.69
2023-09-23T02:12:20.115Z,95227.34
2023-09-23T02:13:26.167Z,95221.17
2023-09-23T02:14:33.690Z,95215.21
2023-09-23T02:15:40.366Z,95212.23
2023-09-23T02:16:48.903Z,95209.92
2023-09-23T02:17:54.945Z,95208.80
2023-09-23T02:19:02.458Z,95206.91
2023-09-23T02:20:13.244Z,95207.08
2023-09-23T02:21:20.805Z,95204.63
2023-09-23T02:22:28.286Z,95202.02
2023-09-23T02:23:35.195Z,95206.64
2023-09-23T02:24:42.047Z,95210.00
2023-09-23T02:25:51.315Z,95207.29
2023-09-23T02:26:57.823Z,95210.04
2023-09-23T02:28:04.609Z,95204.77
2023-09-23T02:29:11.144Z,95207.15
2023-09-23T02:30:17.689Z,95206.65
2023-09-23T02:31:24.185Z,95204.57
2023-09-23T02:32:30.882Z,95207.61
2023-09-23T02:33:37.296Z,95209.30
2023-09-23T02:34:47.052Z,95205.20
2023-09-23T02:35:54.055Z,95207.80
2023-09-23T02:37:00.567Z,95204.73
2023-09-23T02:38:08.812Z,95204.02
2023-09-23T02:39:21.156Z,95207.06
2023-09-23T02:40:29.246Z,95210.38
2023-09-23T02:41:35.768Z,95212.28
2023-09-23T02:42:45.115Z,95211.44
2023-09-23T02:43:54.228Z,95211.98
2023-09-23T02:45:04.509Z,95210.38
2023-09-23T02:46:11.345Z,95213.42
2023-09-23T02:47:20.329Z,95215.09
2023-09-23T02:48:27.477Z,95214.83
2023-09-23T02:49:36.143Z,95216.85
2023-09-23T02:50:42.530Z,95220.52
2023-09-23T02:51:49.956Z,95224.67
2023-09-23T02:52:56.730Z,95225.48
2023-09-23T02:54:02.913Z,95225.40
2023-09-23T02:55:14.946Z,95229.73
2023-09-23T02:56:21.222Z,95231.25
2023-09-23T02:57:29.297Z,95229.71
2023-09-23T02:58:36.053Z,95228.50
2023-09-23T02:59:47.997Z,95229.18
2023-09-23T03:00:59.404Z,95227.83
2023-09-23T03:02:09.339Z,95229.01
2023-09-23T03:03:20.891Z,95229.63
2023-09-23T03:04:29.599Z,95233.82
2023-09-23T03:05:40.133Z,95231.73
2023-09-23T03:06:50.991Z,95235.45
2023-09-23T03:08:01.891Z,95230.12
2023-09-23T03:09:11.684Z,95229.59
2023-09-23T03:10:31.394Z,95227.13
2023-09-23T03:11:49.121Z,95223.35
2023-09-23T03:13:03.469Z,95225.02
2023-09-23T03:14:14.109Z,95224.71
2023-09-23T03:15:24.227Z,95224.06
2023-09-23T03:16:31.061Z,95225.64
2023-09-23T03:17:38.678Z,95225.25
2023-09-23T03:19:08.265Z,95226.61
2023-09-23T03:20:16.236Z,95229.47
2023-09-23T03:21:22.732Z,95234.77
2023-09-23T03:22:32.713Z,95235.80
2023-09-23T03:23:42.169Z,95234.31
2023-09-23T03:24:49.967Z,95233.50
2023-09-23T03:25:58.015Z,95234.60
2023-09-23T03:27:04.689Z,95234.47
2023-09-23T03:28:11.608Z,95229.41
2023-09-23T03:29:19.930Z,95233.05
2023-09-23T03:30:26.736Z,95230.99
2023-09-23T03:31:33.888Z,95231.09
2023-09-23T03:32:41.442Z,95230.57
2023-09-23T03:33:49.430Z,95229.63
2023-09-23T03:34:57.582Z,95227.84
2023-09-23T03:36:07.873Z,95229.45
2023-09-23T03:37:14.989Z,95231.64
2023-09-23T03:38:21.837Z,95234.11
2023-09-23T03:39:29.927Z,95231.22
2023-09-23T03:40:36.867Z,95236.75
2023-09-23T03:41:50.703Z,95232.98
2023-09-23T03:42:59.123Z,95234.80
2023-09-23T03:44:05.912Z,95236.43
2023-09-23T03:45:13.087Z,95233.16
2023-09-23T03:46:19.150Z,95238.08
2023-09-23T03:47:26.625Z,95237.35
2023-09-23T03:48:34.284Z,95243.33
2023-09-23T03:49:40.629Z,95244.86
2023-09-23T03:50:49.410Z,95250.23
2023-09-23T03:51:55.443Z,95249.76
2023-09-23T03:53:01.912Z,95250.48
2023-09-23T03:54:09.644Z,95248.94
2023-09-23T03:55:16.289Z,95248.52
2023-09-23T03:56:26.109Z,95250.11
2023-09-23T03:57:32.896Z,95246.23
2023-09-23T03:58:40.508Z,95247.80
2023-09-23T03:59:48.478Z,95253.35
2023-09-23T04:00:57.737Z,95251.61
2023-09-23T04:02:03.849Z,95252.14
2023-09-23T04:03:10.467Z,95255.80
2023-09-23T04:04:18.561Z,95259.71
2023-09-23T04:05:26.503Z,95262.61
2023-09-23T04:06:34.826Z,95262.30
2023-09-23T04:07:41.479Z,95269.23
2023-09-23T04:08:48.954Z,95266.96
2023-09-23T04:09:55.200Z,95264.98
2023-09-23T04:11:05.832Z,95262.80
2023-09-23T04:12:12.673Z,95269.30
2023-09-23T04:13:21.140Z,95270.91
2023-09-23T04:14:29.459Z,95270.40
2023-09-23T04:15:36.225Z,95269.08
2023-09-23T04:16:42.405Z,95272.67
2023-09-23T04:17:49.617Z,95270.88
2023-09-23T04:18:55.811Z,95267.45
2023-09-23T04:20:05.716Z,95268.61
2023-09-23T04:21:12.886Z,95268.80
2023-09-23T04:22:19.802Z,95274.85
2023-09-23T04:23:26.252Z,95272.65
2023-09-23T04:24:32.794Z,95279.70
2023-09-23T04:25:39.428Z,95280.47
2023-09-23T04:26:45.492Z,95281.56
2023-09-23T04:27:53.378Z,95286.64
2023-09-23T04:28:59.365Z,95286.19
2023-09-23T04:30:13.023Z,95286.09
2023-09-23T04:31:19.875Z,95287.86
2023-09-23T04:32:26.625Z,95286.55
2023-09-23T04:33:32.974Z,95288.20
2023-09-23T04:34:39.697Z,95285.53
2023-09-23T04:35:45.886Z,95287.77
2023-09-23T04:36:52.278Z,95287.84
2023-09-23T04:38:00.557Z,95291.47
2023-09-23T04:39:08.040Z,95293.14
2023-09-23T04:40:16.646Z,95293.06
2023-09-23T04:41:23.198Z,95292.80
2023-09-23T04:42:30.025Z,95293.46
2023-09-23T04:43:37.128Z,95294.86
2023-09-23T04:44:43.651Z,95291.88
2023-09-23T04:45:50.167Z,95297.66
2023-09-23T04:46:58.174Z,95297.84
2023-09-23T04:48:08.151Z,95295.13
2023-09-23T04:49:12.789Z,95292.70
2023-09-23T04:50:19.803Z,95295.08
2023-09-23T04:51:28.500Z,95295.19
2023-09-23T04:52:36.695Z,95292.09
2023-09-23T04:53:42.720Z,95294.91
2023-09-23T04:54:54.512Z,95287.99
2023-09-23T04:56:07.906Z,95288.67
2023-09-23T04:57:15.697Z,95290.40
2023-09-23T04:58:22.781Z,95292.41
2023-09-23T04:59:29.016Z,95295.41
2023-09-23T05:00:38.258Z,95293.27
2023-09-23T05:01:47.292Z,95298.42
2023-09-23T05:02:54.798Z,95299.15
2023-09-23T05:04:01.222Z,95299.48
2023-09-23T05:05:12.391Z,95297.64
2023-09-23T05:06:18.723Z,95299.30
2023-09-23T05:07:26.837Z,95294.79
2023-09-23T05:08:33.958Z,95297.09
2023-09-23T05:09:40.764Z,95304.31
2023-09-23T05:10:47.150Z,95303.73
2023-09-23T05:11:53.749Z,95302.48
2023-09-23T05:13:00.027Z,95305.80
2023-09-23T05:14:06.614Z,95306.26
2023-09-23T05:15:16.484Z,95308.15
2023-09-23T05:16:24.396Z,95306.32
2023-09-23T05:17:32.641Z,95309.61
2023-09-23T05:18:39.965Z,95311.55
2023-09-23T05:19:48.065Z,95311.14
2023-09-23T05:20:54.257Z,95313.70
2023-09-23T05:22:01.344Z,95309.60
2023-09-23T05:23:08.354Z,95311.39
2023-09-23T05:24:14.987Z,95313.16
2023-09-23T05:25:26.253Z,95310.44
2023-09-23T05:26:34.943Z,95315.78
2023-09-23T05:27:43.676Z,95311.84
2023-09-23T05:28:50.886Z,95316.52
2023-09-23T05:29:57.585Z,95317.04
2023-09-23T05:31:06.016Z,95318.72
2023-09-23T05:32:13.551Z,95319.23
2023-09-23T05:33:20.885Z,95319.99
2023-09-23T05:34:28.761Z,95316.45
2023-09-23T05:35:36.775Z,95318.21
2023-09-23T05:36:43.307Z,95318.05
2023-09-23T05:37:51.337Z,95320.73
2023-09-23T05:38:58.548Z,95323.82
2023-09-23T05:40:19.665Z,95323.85
2023-09-23T05:41:26.561Z,95326.14
2023-09-23T05:42:33.702Z,95327.91
2023-09-23T05:43:39.456Z,95329.14
2023-09-23T05:44:47.861Z,95330.84
2023-09-23T05:45:54.517Z,95328.69
2023-09-23T05:47:03.308Z,95333.02
2023-09-23T05:48:12.496Z,95337.48
2023-09-23T05:49:20.549Z,95339.09
2023-09-23T05:50:26.651Z,95338.56
2023-09-23T05:51:36.616Z,95338.67
2023-09-23T05:52:47.017Z,95337.35
2023-09-23T05:53:54.165Z,95338.44
2023-09-23T05:55:00.424Z,95342.48
2023-09-23T05:56:07.122Z,95338.86
2023-09-23T05:57:13.792Z,95339.17
2023-09-23T05:58:20.178Z,95341.15
2023-09-23T05:59:27.821Z,95336.23
2023-09-23T06:00:34.959Z,95337.91
2023-09-23T06:01:42.541Z,95338.21
2023-09-23T06:02:49.425Z,95337.24
2023-09-23T06:03:57.722Z,95335.63
2023-09-23T06:05:04.855Z,95336.13
2023-09-23T06:06:12.520Z,95335.09
2023-09-23T06:07:19.486Z,95339.24
2023-09-23T06:08:25.812Z,95342.08
2023-09-23T06:09:32.794Z,95343.33
2023-09-23T06:10:40.452Z,95341.55
2023-09-23T06:11:46.807Z,95343.91
2023-09-23T06:12:53.119Z,95348.67
2023-09-23T06:13:59.497Z,95344.11
2023-09-23T06:15:12.071Z,95345.30
2023-09-23T06:16:18.698Z,95346.94
2023-09-23T06:17:25.462Z,95346.79
2023-09-23T06:18:34.935Z,95343.97
2023-09-23T06:19:42.452Z,95345.73
2023-09-23T06:20:49.439Z,95347.08
2023-09-23T06:21:57.044Z,95345.33
2023-09-23T06:23:04.125Z,95349.08
2023-09-23T06:24:11.948Z,95348.49
2023-09-23T06:25:19.189Z,95346.80
2023-09-23T06:26:26.677Z,95353.27
2023-09-23T06:27:33.739Z,95351.56
2023-09-23T06:28:40.297Z,95351.67
2023-09-23T06:29:47.662Z,95350.11
2023-09-23T06:30:54.661Z,95347.19
2023-09-23T06:32:00.944Z,95349.33
2023-09-23T06:33:08.369Z,95348.90
2023-09-23T06:34:15.121Z,95347.36
2023-09-23T06:35:21.772Z,95346.91
2023-09-23T06:36:28.563Z,95348.88
2023-09-23T06:37:34.818Z,95352.20
2023-09-23T06:38:41.792Z,95353.77
2023-09-23T06:39:49.371Z,95352.41
2023-09-23T06:41:00.365Z,95355.46
2023-09-23T06:42:07.178Z,95358.23
2023-09-23T06:43:14.421Z,95358.71
2023-09-23T06:44:20.467Z,95362.98
2023-09-23T06:45:26.856Z,95360.02
2023-09-23T06:46:33.298Z,95362.14
2023-09-23T06:47:42.102Z,95363.07
2023-09-23T06:48:49.563Z,95364.95
2023-09-23T06:49:56.145Z,95364.70
2023-09-23T06:51:05.164Z,95366.02
2023-09-23T06:52:13.414Z,95366.70
2023-09-23T06:53:19.210Z,95367.40
2023-09-23T06:54:26.477Z,95371.58
2023-09-23T06:55:32.590Z,95371.94
2023-09-23T06:56:39.576Z,95375.16
2023-09-23T06:57:45.735Z,95371.35
2023-09-23T06:58:52.180Z,95370.27
2023-09-23T06:59:58.564Z,95374.36
2023-09-23T07:01:05.268Z,95372.04
2023-09-23T07:02:11.478Z,95370.67
2023-09-23T07:03:17.893Z,95372.98
2023-09-23T07:04:24.663Z,95371.15
2023-09-23T07:05:31.269Z,95373.02
2023-09-23T07:06:38.068Z,95373.86
2023-09-23T07:07:44.896Z,95371.16
2023-09-23T07:08:50.994Z,95368.54
2023-09-23T07:09:57.228Z,95372.52
2023-09-23T07:11:04.155Z,95363.67
2023-09-23T07:12:13.873Z,95363.91
2023-09-23T07:13:22.665Z,95368.44
2023-09-23T07:14:30.705Z,95367.95
2023-09-23T07:15:42.251Z,95369.90
2023-09-23T07:16:48.935Z,95371.14
2023-09-23T07:17:56.283Z,95374.70
2023-09-23T07:19:02.497Z,95374.36
2023-09-23T07:20:13.134Z,95373.95
2023-09-23T07:21:19.458Z,95373.13
2023-09-23T07:22:25.990Z,95376.13
2023-09-23T07:23:32.517Z,95372.05
2023-09-23T07:24:40.225Z,95370.13
2023-09-23T07:25:47.097Z,95367.96
2023-09-23T07:26:57.067Z,95364.08
2023-09-23T07:28:05.161Z,95362.63
2023-09-23T07:29:10.962Z,95361.95
2023-09-23T07:30:18.906Z,95363.37
2023-09-23T07:31:25.122Z,95361.35
2023-09-23T07:32:31.737Z,95358.30
2023-09-23T07:33:38.266Z,95363.44
2023-09-23T07:34:45.615Z,95369.48
2023-09-23T07:35:51.632Z,95366.05
2023-09-23T07:36:57.978Z,95371.27
2023-09-23T07:38:05.435Z,95368.04
2023-09-23T07:39:12.385Z,95366.80
2023-09-23T07:40:20.490Z,95366.36
2023-09-23T07:41:28.213Z,95367.84
2023-09-23T07:42:36.285Z,95365.73
2023-09-23T07:43:44.960Z,95364.09
2023-09-23T07:44:51.330Z,95366.18
2023-09-23T07:45:58.011Z,95362.55
2023-09-23T07:47:04.021Z,95363.38
2023-09-23T07:48:11.568Z,95363.31
2023-09-23T07:49:18.372Z,95365.23
2023-09-23T07:50:25.381Z,95365.95
2023-09-23T07:51:31.815Z,95362.72
2023-09-23T07:52:38.298Z,95364.52
2023-09-23T07:53:44.792Z,95362.08
2023-09-23T07:54:52.337Z,95360.20
2023-09-23T07:55:58.972Z,95358.02
2023-09-23T07:57:05.298Z,95356.98
2023-09-23T07:58:12.540Z,95352.23
2023-09-23T07:59:21.523Z,95353.86
2023-09-23T08:00:28.558Z,95356.26
2023-09-23T08:01:35.150Z,95358.90
2023-09-23T08:02:41.476Z,95360.59
2023-09-23T08:03:48.648Z,95356.70
2023-09-23T08:04:55.741Z,95356.00
2023-09-23T08:06:04.004Z,95357.44
2023-09-23T08:07:12.618Z,95353.15
2023-09-23T08:08:19.067Z,95352.64
2023-09-23T08:09:25.277Z,95350.19
2023-09-23T08:10:32.969Z,95351.14
2023-09-23T08:11:39.588Z,95348.60
2023-09-23T08:12:45.584Z,95347.31
2023-09-23T08:13:52.445Z,95349.64
2023-09-23T08:14:58.569Z,95350.76
2023-09-23T08:16:05.809Z,95347.80
2023-09-23T08:17:12.340Z,95348.38
2023-09-23T08:18:18.971Z,95351.46
2023-09-23T08:19:25.837Z,95350.36
2023-09-23T08:20:31.931Z,95353.70
2023-09-23T08:21:37.946Z,95355.77
2023-09-23T08:22:44.104Z,95356.48
2023-09-23T08:23:49.887Z,95355.68
2023-09-23T08:24:56.497Z,95356.42
2023-09-23T08:26:03.258Z,95357.37
2023-09-23T08:27:10.236Z,95352.90
2023-09-23T08:28:17.043Z,95351.47
2023-09-23T08:29:25.946Z,95352.09
2023-09-23T08:30:32.642Z,95349.14
2023-09-23T08:31:40.730Z,95351.82
2023-09-23T08:32:47.132Z,95352.05
2023-09-23T08:33:54.139Z,95348.30
2023-09-23T08:35:00.503Z,95349.16
2023-09-23T08:36:07.776Z,95347.14
2023-09-23T08:37:14.417Z,95346.96
2023-09-23T08:38:22.085Z,95342.16
2023-09-23T08:39:28.279Z,95343.19
2023-09-23T08:40:39.356Z,95342.33
2023-09-23T08:41:54.875Z,95342.23
2023-09-23T08:43:07.060Z,95341.98
2023-09-23T08:44:17.455Z,95342.67
2023-09-23T08:45:29.832Z,95343.92
2023-09-23T08:46:37.398Z,95344.23
2023-09-23T08:47:45.060Z,95347.79
2023-09-23T08:48:51.464Z,95344.89
2023-09-23T08:49:57.934Z,95347.48
2023-09-23T08:51:07.559Z,95351.12
2023-09-23T08:52:15.811Z,95343.17
2023-09-23T08:53:24.072Z,95345.61
2023-09-23T08:54:33.150Z,95346.22
2023-09-23T08:55:42.008Z,95345.09
2023-09-23T08:56:48.467Z,95341.15
2023-09-23T08:58:02.938Z,95340.15
2023-09-23T08:59:12.791Z,95338.88
2023-09-23T09:00:21.363Z,95342.48
2023-09-23T09:01:27.241Z,95336.84
2023-09-23T09:02:33.626Z,95338.30
2023-09-23T09:03:40.211Z,95337.31
2023-09-23T09:04:47.120Z,95334.76
2023-09-23T09:05:54.050Z,95334.96
2023-09-23T09:07:00.770Z,95329.98
2023-09-23T09:08:08.806Z,95326.23
2023-09-23T09:09:15.420Z,95324.43
2023-09-23T09:10:27.253Z,95320.64
2023-09-23T09:11:33.891Z,95320.05
2023-09-23T09:12:40.502Z,95315.54
2023-09-23T09:13:46.620Z,95317.42
2023-09-23T09:14:53.207Z,95316.17
2023-09-23T09:15:59.697Z,95316.14
2023-09-23T09:17:14.035Z,95314.42
2023-09-23T09:18:21.625Z,95312.69
2023-09-23T09:19:29.664Z,95309.27
2023-09-23T09:20:38.576Z,95308.81
2023-09-23T09:21:46.118Z,95307.30
2023-09-23T09:22:53.747Z,95306.69
2023-09-23T09:24:01.688Z,95308.14
2023-09-23T09:25:13.117Z,95305.78
2023-09-23T09:26:20.393Z,95303.20
2023-09-23T09:27:26.803Z,95298.26
2023-09-23T09:28:33.928Z,95296.90
2023-09-23T09:29:42.049Z,95297.27
2023-09-23T09:30:55.452Z,95296.13
2023-09-23T09:32:03.900Z,95294.56
2023-09-23T09:33:12.356Z,95294.71
2023-09-23T09:34:24.999Z,95293.23
2023-09-23T09:35:32.936Z,95292.87
2023-09-23T09:36:40.706Z,95293.53
2023-09-23T09:37:55.414Z,95291.95
2023-09-23T09:39:10.080Z,95292.81
2023-09-23T09:40:22.207Z,95286.13
2023-09-23T09:41:36.813Z,95290.70
2023-09-23T09:42:49.391Z,95286.30
2023-09-23T09:43:58.515Z,95286.98
2023-09-23T09:45:09.337Z,95286.47
2023-09-23T09:46:22.321Z,95284.27
2023-09-23T09:47:29.475Z,95283.11
2023-09-23T09:48:39.264Z,95284.01
2023-09-23T09:49:48.020Z,95280.56
2023-09-23T09:50:56.978Z,95280.58
2023-09-23T09:52:04.830Z,95279.08
2023-09-23T09:53:11.723Z,95281.23
2023-09-23T09:54:21.608Z,95278.45
2023-09-23T09:55:28.490Z,95281.96
2023-09-23T09:56:35.625Z,95285.74
2023-09-23T09:57:42.692Z,95286.88
2023-09-23T09:58:51.616Z,95281.92
2023-09-23T10:00:22.387Z,95285.23
2023-09-23T10:01:29.871Z,95287.09
2023-09-23T10:02:38.157Z,95287.00
2023-09-23T10:03:47.053Z,95290.94
2023-09-23T10:04:55.217Z,95290.59
2023-09-23T10:06:03.555Z,95293.52
2023-09-23T10:07:13.363Z,95292.64
2023-09-23T10:08:26.951Z,95296.64
2023-09-23T10:09:35.697Z,95294.29
2023-09-23T10:10:49.386Z,95295.80
2023-09-23T10:11:59.915Z,95298.80
2023-09-23T10:13:15.735Z,95296.90
2023-09-23T10:14:22.573Z,95296.74
2023-09-23T10:15:30.628Z,95298.44
2023-09-23T10:16:38.640Z,95300.33
2023-09-23T10:17:44.965Z,95301.79
2023-09-23T10:19:00.580Z,95295.84
2023-09-23T10:20:22.690Z,95292.02
2023-09-23T10:21:30.181Z,95290.31
2023-09-23T10:22:36.506Z,95289.81
2023-09-23T10:23:47.313Z,95288.70
2023-09-23T10:25:04.709Z,95289.27
2023-09-23T10:26:20.613Z,95285.93
2023-09-23T10:27:27.651Z,95286.45
2023-09-23T10:28:35.003Z,95284.80
2023-09-23T10:29:49.324Z,95284.24
2023-09-23T10:31:08.167Z,95280.46
2023-09-23T10:32:16.322Z,95284.61
2023-09-23T10:33:22.782Z,95274.83
2023-09-23T10:34:36.832Z,95272.27
2023-09-23T10:35:51.330Z,95270.91
2023-09-23T10:36:57.494Z,95267.61
2023-09-23T10:38:07.186Z,95267.93
2023-09-23T10:39:19.315Z,95267.14
2023-09-23T10:40:26.052Z,95262.60
2023-09-23T10:41:37.360Z,95259.30
2023-09-23T10:42:46.893Z,95259.71
2023-09-23T10:43:57.779Z,95256.34
2023-09-23T10:45:06.774Z,95257.95
2023-09-23T10:46:12.822Z,95257.00
2023-09-23T10:47:19.191Z,95256.09
2023-09-23T10:48:26.438Z,95255.98
2023-09-23T10:49:32.817Z,95253.31
2023-09-23T10:50:42.244Z,95253.77
2023-09-23T10:51:50.109Z,95251.89
2023-09-23T10:52:56.645Z,95243.52
2023-09-23T10:54:04.709Z,95246.09
2023-09-23T10:55:13.175Z,95244.23
2023-09-23T10:56:26.377Z,95245.83
2023-09-23T10:57:34.479Z,95244.51
2023-09-23T10:58:40.916Z,95244.39
2023-09-23T10:59:47.502Z,95245.88
2023-09-23T11:00:54.117Z,95241.84
2023-09-23T11:02:00.905Z,95246.35
2023-09-23T11:03:12.903Z,95242.95
2023-09-23T11:04:22.032Z,95244.16
2023-09-23T11:05:29.821Z,95239.70
2023-09-23T11:06:36.827Z,95240.23
2023-09-23T11:07:45.464Z,95244.70
2023-09-23T11:08:52.214Z,95238.39
2023-09-23T11:09:59.365Z,95240.02
2023-09-23T11:11:10.845Z,95236.95
2023-09-23T11:12:18.331Z,95236.19
2023-09-23T11:13:26.353Z,95235.73
2023-09-23T11:14:33.242Z,95231.88
2023-09-23T11:15:41.823Z,95231.49
2023-09-23T11:16:50.001Z,95227.90
2023-09-23T11:17:58.653Z,95224.90
2023-09-23T11:19:10.189Z,95223.68
2023-09-23T11:20:17.418Z,95223.92
2023-09-23T11:21:24.331Z,95223.44
2023-09-23T11:22:32.033Z,95223.13
2023-09-23T11:23:40.663Z,95224.42
2023-09-23T11:24:48.106Z,95221.29
2023-09-23T11:25:55.422Z,95217.44
2023-09-23T11:27:08.643Z,95216.10
2023-09-23T11:28:23.516Z,95215.86
2023-09-23T11:29:30.960Z,95211.69
2023-09-23T11:30:37.901Z,95212.31
2023-09-23T11:31:44.359Z,95212.15
2023-09-23T11:32:56.027Z,95204.23
2023-09-23T11:34:02.867Z,95207.85
2023-09-23T11:35:10.826Z,95207.08
2023-09-23T11:36:17.357Z,95204.94
2023-09-23T11:37:24.654Z,95201.02
2023-09-23T11:38:31.462Z,95202.21
2023-09-23T11:39:38.757Z,95199.03
2023-09-23T11:40:45.174Z,95195.34
2023-09-23T11:41:58.769Z,95194.48
2023-09-23T11:43:07.189Z,95196.29
2023-09-23T11:44:13.552Z,95195.70
2023-09-23T11:45:21.541Z,95193.44
2023-09-23T11:46:28.376Z,95195.83
2023-09-23T11:47:35.172Z,95193.20
2023-09-23T11:48:43.366Z,95192.77
2023-09-23T11:49:49.928Z,95193.14
2023-09-23T11:50:56.263Z,95195.13
2023-09-23T11:52:02.947Z,95194.15
2023-09-23T11:53:12.417Z,95197.18
2023-09-23T11:54:18.846Z,95192.02
2023-09-23T11:55:27.770Z,95190.58
2023-09-23T11:56:36.807Z,95190.45
2023-09-23T11:57:44.139Z,95188.29
2023-09-23T11:59:05.846Z,95188.76
2023-09-23T12:00:17.838Z,95185.97
2023-09-23T12:01:24.316Z,95183.30
2023-09-23T12:02:31.284Z,95180.70
2023-09-23T12:03:38.417Z,95180.80
2023-09-23T12:04:46.311Z,95179.80
2023-09-23T12:05:54.938Z,95172.98
2023-09-23T12:07:02.489Z,95172.62
2023-09-23T12:08:11.772Z,95172.27
2023-09-23T12:09:19.041Z,95171.55
2023-09-23T12:10:26.338Z,95167.82
2023-09-23T12:11:32.687Z,95165.52
2023-09-23T12:12:40.560Z,95161.92
2023-09-23T12:13:48.066Z,95163.48
2023-09-23T12:14:55.443Z,95161.27
2023-09-23T12:16:02.006Z,95158.89
2023-09-23T12:17:08.424Z,95157.42
2023-09-23T12:18:14.996Z,95155.88
2023-09-23T12:19:22.832Z,95153.25
2023-09-23T12:20:30.387Z,95151.84
2023-09-23T12:21:36.562Z,95152.46
2023-09-23T12:22:43.363Z,95151.09
2023-09-23T12:23:49.989Z,95147.89
2023-09-23T12:24:59.785Z,95150.34
2023-09-23T12:26:06.261Z,95152.04
2023-09-23T12:27:13.480Z,95149.83
2023-09-23T12:28:20.493Z,95147.84
2023-09-23T12:29:28.148Z,95144.37
2023-09-23T12:30:35.182Z,95140.50
2023-09-23T12:31:40.953Z,95142.44
2023-09-23T12:32:47.381Z,95144.70
2023-09-23T12:33:54.951Z,95142.23
2023-09-23T12:35:01.240Z,95140.44
2023-09-23T12:36:08.985Z,95140.55
2023-09-23T12:37:15.446Z,95137.70
2023-09-23T12:38:22.869Z,95142.21
2023-09-23T12:39:29.773Z,95138.65
2023-09-23T12:40:36.911Z,95139.59
2023-09-23T12:41:43.143Z,95136.05
2023-09-23T12:42:50.051Z,95135.84
2023-09-23T12:43:56.213Z,95135.33
2023-09-23T12:45:06.105Z,95132.95
2023-09-23T12:46:13.753Z,95133.63
2023-09-23T12:47:20.595Z,95132.52
2023-09-23T12:48:27.716Z,95133.15
2023-09-23T12:49:34.378Z,95132.34
2023-09-23T12:50:40.995Z,95128.66
2023-09-23T12:51:48.484Z,95126.41
2023-09-23T12:52:55.771Z,95126.02
2023-09-23T12:54:02.891Z,95127.42
2023-09-23T12:55:10.598Z,95124.61
2023-09-23T12:56:18.786Z,95122.25
2023-09-23T12:57:27.395Z,95122.91
2023-09-23T12:58:33.952Z,95121.91
2023-09-23T12:59:40.811Z,95123.08
2023-09-23T13:00:48.181Z,95122.13
2023-09-23T13:01:54.317Z,95120.71
2023-09-23T13:03:00.507Z,95120.24
2023-09-23T13:04:07.352Z,95120.11
2023-09-23T13:05:16.020Z,95120.41
2023-09-23T13:06:22.720Z,95116.70
2023-09-23T13:07:29.373Z,95116.81
2023-09-23T13:08:35.651Z,95118.60
2023-09-23T13:09:42.520Z,95113.23
2023-09-23T13:10:49.172Z,95115.20
2023-09-23T13:11:55.340Z,95115.15
2023-09-23T13:13:01.920Z,95111.52
2023-09-23T13:14:09.980Z,95108.54
2023-09-23T13:15:17.742Z,95114.04
2023-09-23T13:16:23.929Z,95105.77
2023-09-23T13:17:30.618Z,95102.16
2023-09-23T13:18:38.995Z,95104.95
2023-09-23T13:19:46.857Z,95101.06
2023-09-23T13:20:53.025Z,95104.65